This demonstration page uses our WeatherBlox Daily Observations layout. Learn more.

Hourly Observations for February 16, 2020

Temp ( °F °C ) Dew Point ( °F °C ) Humidity (%) Winds ( mph kmh ) Pressure ( in mb ) Visibility ( mi km ) Precip ( " mm )
12:54 am 00:54 Clear 30 -1.1 22 -5.6 72 72 SE 3 6 30.11 1020 10 16.0934 0 0
1:54 am 01:54 Clear 31 -0.6 22 -5.6 69 69 SE 5 7 30.08 1019 10 16.0934 0 0
2:54 am 02:54 Cloudy 32 0 22 -5.6 66 66 S 5 7 30.08 1019 10 16.0934 0 0
3:54 am 03:54 Cloudy 32 0 23 -5 69 69 SSE 3 6 30.05 1018 10 16.0934 0 0
4:54 am 04:54 Cloudy 32 0 23 -5 69 69 SSE 3 6 30.04 1017 10 16.0934 0 0
5:54 am 05:54 Cloudy 34 1.1 24 -4.4 67 67 SE 3 6 30.04 1017 10 16.0934 0 0
6:54 am 06:54 Cloudy 35 1.7 24 -4.4 64 64 SE 3 6 30.04 1017 10 16.0934 0 0
7:54 am 07:54 Mostly Cloudy 34 1.1 24 -4.4 67 67 WNW 3 6 30.06 1018 10 16.0934 0 0
8:54 am 08:54 Sunny 37 2.8 26 -3.3 65 65 SW 13 20 30.08 1019 10 16.0934 0 0
9:54 am 09:54 Sunny 42 5.6 26 -3.3 53 53 SW 13 20 30.06 1018 10 16.0934 0 0
10:54 am 10:54 Sunny 48 8.9 26 -3.3 42 42 SW 16 26 30.04 1017 10 16.0934 0 0
11:54 am 11:54 Sunny 51 10.6 22 -5.6 32 32 SW 18 30 30 1016 10 16.0934 0 0
12:54 pm 12:54 Sunny 53 11.7 24 -4.4 32 32 SW 16 26 29.96 1015 10 16.0934 0 0
1:54 pm 13:54 Sunny 55 12.8 22 -5.6 28 28 SW 20 31 29.93 1013 10 16.0934 0 0
2:54 pm 14:54 Sunny 55 12.8 22 -5.6 28 28 SW 12 19 29.91 1013 10 16.0934 0 0
3:54 pm 15:54 Mostly Sunny 54 12.2 22 -5.6 29 29 SSW 15 24 29.91 1013 10 16.0934 0 0
4:54 pm 16:54 Cloudy 52 11.1 22 -5.6 31 31 SSW 8 13 29.9 1013 10 16.0934 0 0
5:54 pm 17:54 Cloudy 47 8.3 22 -5.6 37 37 S 6 9 29.9 1013 10 16.0934 0 0
6:54 pm 18:54 Cloudy 47 8.3 23 -5 39 39 SSE 9 15 29.9 1012 10 16.0934 0 0
7:54 pm 19:54 Cloudy 43 6.1 24 -4.4 47 47 SSE 6 9 29.91 1013 10 16.0934 0 0
8:54 pm 20:54 Mostly Cloudy 42 5.6 26 -3.3 53 53 SSE 6 9 29.91 1013 10 16.0934 0 0
9:54 pm 21:54 Cloudy 43 6.1 30 -1.1 60 60 SSE 6 9 29.9 1013 10 16.0934 0 0
10:54 pm 22:54 Cloudy 43 6.1 32 0 65 65 SE 5 7 29.9 1013 10 16.0934 0 0
11:54 pm 23:54 Cloudy 42 5.6 33 0.6 71 71 SSE 8 13 29.88 1012 10 16.0934 0 0

Powered by AerisWeather